createdAt,value
2022-11-26T00:01:52.000Z,32.43
2022-11-26T00:03:56.433Z,32.23
2022-11-26T00:06:00.781Z,32.33
2022-11-26T00:08:05.162Z,32.58
2022-11-26T00:10:09.580Z,32.38
2022-11-26T00:12:13.941Z,32.76
2022-11-26T00:14:18.318Z,32.61
2022-11-26T00:16:23.012Z,32.35
2022-11-26T00:18:27.627Z,32.63
2022-11-26T00:20:32.057Z,32.41
2022-11-26T00:22:36.438Z,32.61
2022-11-26T00:24:41.326Z,32.9
2022-11-26T00:26:45.714Z,32.85
2022-11-26T00:28:50.102Z,33.05
2022-11-26T00:30:54.498Z,33.36
2022-11-26T00:32:58.854Z,33.23
2022-11-26T00:35:03.362Z,33.42
2022-11-26T00:37:07.757Z,33.33
2022-11-26T00:39:12.108Z,33.59
2022-11-26T00:41:16.520Z,33.32
2022-11-26T00:43:20.880Z,33.15
2022-11-26T00:45:25.557Z,33.08
2022-11-26T00:47:29.939Z,33.4
2022-11-26T00:49:34.335Z,33.25
2022-11-26T00:51:38.674Z,33.29
2022-11-26T00:53:43.057Z,33.21
2022-11-26T00:55:47.401Z,33
2022-11-26T00:57:51.738Z,33.08
2022-11-26T00:59:56.103Z,33.27
2022-11-26T01:02:00.643Z,33.26
2022-11-26T01:04:05.035Z,33.07
2022-11-26T01:06:09.426Z,32.98
2022-11-26T01:08:13.827Z,32.98
2022-11-26T01:10:18.198Z,33.12
2022-11-26T01:12:22.568Z,33.17
2022-11-26T01:14:26.914Z,33.12
2022-11-26T01:16:31.606Z,33.25
2022-11-26T01:18:36.024Z,33.24
2022-11-26T01:20:40.418Z,33.12
2022-11-26T01:22:44.768Z,33.23
2022-11-26T01:24:49.102Z,33.18
2022-11-26T01:26:53.505Z,33.16
2022-11-26T01:28:57.881Z,33.33
2022-11-26T01:31:02.248Z,33.28
2022-11-26T01:33:06.578Z,33.42
2022-11-26T01:35:10.917Z,33.41
2022-11-26T01:37:15.301Z,33.55
2022-11-26T01:39:19.631Z,33.49
2022-11-26T01:41:23.981Z,33.52
2022-11-26T01:43:28.391Z,33.64
2022-11-26T01:45:32.884Z,33.7
2022-11-26T01:47:37.310Z,33.71
2022-11-26T01:49:41.651Z,33.95
2022-11-26T01:51:46.033Z,33.82
2022-11-26T01:53:50.401Z,33.83
2022-11-26T01:55:54.727Z,34.14
2022-11-26T01:57:59.156Z,34.11
2022-11-26T02:00:03.643Z,34.06
2022-11-26T02:02:08.196Z,34.16
2022-11-26T02:04:12.698Z,34.27
2022-11-26T02:06:17.093Z,34.11
2022-11-26T02:08:21.505Z,34.16
2022-11-26T02:10:26.150Z,34.34
2022-11-26T02:12:30.546Z,34.34
2022-11-26T02:14:35.042Z,34.34
2022-11-26T02:16:39.994Z,34.29
2022-11-26T02:18:44.567Z,34.4
2022-11-26T02:20:48.963Z,34.47
2022-11-26T02:22:53.427Z,34.5
2022-11-26T02:24:57.827Z,34.61
2022-11-26T02:27:02.217Z,34.56
2022-11-26T02:29:06.576Z,34.94
2022-11-26T02:31:11.082Z,35.06
2022-11-26T02:33:15.476Z,35.67
2022-11-26T02:35:19.859Z,35.55
2022-11-26T02:37:24.240Z,35.41
2022-11-26T02:39:28.586Z,35.41
2022-11-26T02:41:32.960Z,35.61
2022-11-26T02:43:37.320Z,35.55
2022-11-26T02:45:42.006Z,35.62
2022-11-26T02:47:46.408Z,35.58
2022-11-26T02:49:50.734Z,35.67
2022-11-26T02:51:55.135Z,35.71
2022-11-26T02:53:59.816Z,35.71
2022-11-26T02:56:04.288Z,35.67
2022-11-26T02:58:08.669Z,35.74
2022-11-26T03:00:13.019Z,35.81
2022-11-26T03:02:17.386Z,35.83
2022-11-26T03:04:22.075Z,35.92
2022-11-26T03:06:26.497Z,35.87
2022-11-26T03:08:30.885Z,36
2022-11-26T03:10:35.229Z,35.99
2022-11-26T03:12:39.572Z,36.02
2022-11-26T03:14:43.905Z,35.97
2022-11-26T03:16:48.453Z,36.17
2022-11-26T03:18:52.916Z,36.19
2022-11-26T03:20:57.285Z,36.29
2022-11-26T03:23:01.710Z,36.19
2022-11-26T03:25:06.096Z,36.28
2022-11-26T03:27:10.444Z,36.38
2022-11-26T03:29:14.809Z,36.46
2022-11-26T03:31:19.402Z,36.43
2022-11-26T03:33:23.884Z,36.53
2022-11-26T03:35:28.267Z,36.52
2022-11-26T03:37:32.620Z,36.59
2022-11-26T03:39:36.997Z,36.63
2022-11-26T03:41:41.484Z,36.63
2022-11-26T03:43:45.900Z,36.58
2022-11-26T03:45:50.541Z,36.59
2022-11-26T03:47:54.931Z,36.59
2022-11-26T03:49:59.298Z,36.54
2022-11-26T03:52:03.658Z,36.63
2022-11-26T03:54:08.070Z,36.69
2022-11-26T03:56:12.417Z,36.71
2022-11-26T03:58:16.829Z,36.82
2022-11-26T04:00:21.144Z,36.83
2022-11-26T04:02:25.488Z,36.83
2022-11-26T04:04:29.848Z,36.8
2022-11-26T04:06:34.161Z,36.79
2022-11-26T04:08:38.581Z,36.79
2022-11-26T04:10:42.947Z,36.77
2022-11-26T04:12:47.306Z,36.84
2022-11-26T04:14:51.690Z,37.07
2022-11-26T04:16:56.287Z,36.93
2022-11-26T04:19:00.654Z,36.94
2022-11-26T04:21:05.041Z,36.94
2022-11-26T04:23:09.413Z,37.05
2022-11-26T04:25:13.754Z,37.04
2022-11-26T04:27:18.143Z,37.1
2022-11-26T04:29:22.505Z,37.12
2022-11-26T04:31:27.113Z,37.13
2022-11-26T04:33:31.583Z,37.15
2022-11-26T04:35:35.951Z,37.15
2022-11-26T04:37:40.305Z,37.16
2022-11-26T04:39:44.669Z,37.22
2022-11-26T04:41:49.019Z,37.26
2022-11-26T04:43:53.406Z,37.41
2022-11-26T04:45:58.104Z,37.42
2022-11-26T04:48:02.476Z,37.41
2022-11-26T04:50:06.843Z,37.49
2022-11-26T04:52:11.191Z,37.42
2022-11-26T04:54:15.569Z,37.58
2022-11-26T04:56:19.929Z,37.67
2022-11-26T04:58:24.340Z,37.75
2022-11-26T05:00:28.688Z,37.84
2022-11-26T05:02:33.332Z,37.7
2022-11-26T05:04:38.655Z,37.8
2022-11-26T05:06:43.212Z,37.8
2022-11-26T05:08:47.635Z,37.79
2022-11-26T05:10:51.994Z,37.85
2022-11-26T05:12:56.383Z,37.75
2022-11-26T05:15:00.800Z,37.84
2022-11-26T05:17:05.253Z,37.86
2022-11-26T05:19:09.625Z,38.05
2022-11-26T05:21:13.959Z,38.09
2022-11-26T05:23:18.314Z,38.12
2022-11-26T05:25:22.716Z,38.12
2022-11-26T05:27:27.078Z,37.97
2022-11-26T05:29:31.461Z,37.96
2022-11-26T05:31:36.143Z,38.09
2022-11-26T05:33:40.544Z,37.91
2022-11-26T05:35:44.903Z,37.99
2022-11-26T05:37:49.221Z,38.03
2022-11-26T05:39:53.589Z,37.97
2022-11-26T05:41:57.933Z,38
2022-11-26T05:44:02.356Z,38.05
2022-11-26T05:46:07.203Z,37.87
2022-11-26T05:48:11.556Z,37.98
2022-11-26T05:50:15.957Z,38.05
2022-11-26T05:52:20.407Z,38.17
2022-11-26T05:54:24.777Z,38.18
2022-11-26T05:56:29.122Z,38.21
2022-11-26T05:58:33.466Z,38.2
2022-11-26T06:00:37.849Z,38.21
2022-11-26T06:02:42.795Z,38.24
2022-11-26T06:04:47.297Z,38.22
2022-11-26T06:06:51.649Z,38.16
2022-11-26T06:08:55.994Z,38.16
2022-11-26T06:11:00.387Z,38.23
2022-11-26T06:13:04.720Z,38.24
2022-11-26T06:15:09.182Z,38.24
2022-11-26T06:17:13.545Z,38.34
2022-11-26T06:19:17.889Z,38.3
2022-11-26T06:21:22.286Z,38.31
2022-11-26T06:23:26.616Z,38.34
2022-11-26T06:25:30.995Z,38.43
2022-11-26T06:27:35.314Z,38.31
2022-11-26T06:29:39.711Z,38.38
2022-11-26T06:31:44.435Z,38.45
2022-11-26T06:33:48.808Z,38.41
2022-11-26T06:35:53.174Z,38.45
2022-11-26T06:37:57.555Z,38.47
2022-11-26T06:40:01.902Z,38.48
2022-11-26T06:42:06.260Z,38.5
2022-11-26T06:44:10.618Z,38.57
2022-11-26T06:46:15.302Z,38.53
2022-11-26T06:48:19.679Z,38.61
2022-11-26T06:50:24.024Z,38.59
2022-11-26T06:52:28.456Z,38.58
2022-11-26T06:54:32.773Z,38.6
2022-11-26T06:56:37.124Z,38.59
2022-11-26T06:58:41.462Z,38.65
2022-11-26T07:00:45.810Z,38.5
2022-11-26T07:02:50.480Z,38.46
2022-11-26T07:04:54.846Z,38.44
2022-11-26T07:06:59.241Z,38.58
2022-11-26T07:09:03.580Z,38.49
2022-11-26T07:11:07.972Z,38.52
2022-11-26T07:13:12.328Z,38.51
2022-11-26T07:15:16.671Z,38.48
2022-11-26T07:17:21.063Z,38.62
2022-11-26T07:19:25.401Z,38.68
2022-11-26T07:21:29.880Z,38.66
2022-11-26T07:23:34.261Z,38.82
2022-11-26T07:25:38.643Z,38.85
2022-11-26T07:27:43.086Z,38.96
2022-11-26T07:29:47.428Z,38.81
2022-11-26T07:31:52.025Z,38.87
2022-11-26T07:33:56.446Z,39.06
2022-11-26T07:36:00.827Z,39.02
2022-11-26T07:38:05.177Z,38.96
2022-11-26T07:40:09.517Z,38.9
2022-11-26T07:42:13.878Z,38.87
2022-11-26T07:44:18.225Z,38.91
2022-11-26T07:46:23.003Z,38.88
2022-11-26T07:48:27.405Z,38.85
2022-11-26T07:50:31.754Z,38.89
2022-11-26T07:52:36.100Z,38.84
2022-11-26T07:54:41.610Z,38.95
2022-11-26T07:56:45.964Z,38.86
2022-11-26T07:58:50.339Z,38.93
2022-11-26T08:00:56.947Z,38.86
2022-11-26T08:03:01.622Z,38.92
2022-11-26T08:05:06.027Z,38.89
2022-11-26T08:07:10.556Z,39
2022-11-26T08:09:15.019Z,38.96
2022-11-26T08:11:19.508Z,39.07
2022-11-26T08:13:23.901Z,39.06
2022-11-26T08:15:28.270Z,38.98
2022-11-26T08:17:32.698Z,39.06
2022-11-26T08:19:37.197Z,39.09
2022-11-26T08:21:41.570Z,39.13
2022-11-26T08:23:45.958Z,39.12
2022-11-26T08:26:37.318Z,39.15
2022-11-26T08:28:42.989Z,39.15
2022-11-26T08:30:47.385Z,39.18
2022-11-26T08:32:51.726Z,39.2
2022-11-26T08:34:56.129Z,39.2
2022-11-26T08:37:00.511Z,39.15
2022-11-26T08:39:04.991Z,39.37
2022-11-26T08:41:09.348Z,39.48
2022-11-26T08:43:13.733Z,39.31
2022-11-26T08:45:18.113Z,39.29
2022-11-26T08:47:22.475Z,39.25
2022-11-26T08:49:26.849Z,39.34
2022-11-26T08:51:31.204Z,39.41
2022-11-26T08:53:35.526Z,39.39
2022-11-26T08:56:01.760Z,39.36
2022-11-26T08:58:06.181Z,39.11
2022-11-26T09:00:10.510Z,38.93
2022-11-26T09:02:20.671Z,39.03
2022-11-26T09:04:25.049Z,39.22
2022-11-26T09:06:29.530Z,39.3
2022-11-26T09:08:33.900Z,39.26
2022-11-26T09:10:38.226Z,39.37
2022-11-26T09:12:42.612Z,39.34
2022-11-26T09:14:47.138Z,39.18
2022-11-26T09:16:51.846Z,39.29
2022-11-26T09:18:56.316Z,39.44
2022-11-26T09:21:00.689Z,39.27
2022-11-26T09:23:05.074Z,39.15
2022-11-26T09:25:09.413Z,39.21
2022-11-26T09:27:13.761Z,39.41
2022-11-26T09:29:18.134Z,39.57
2022-11-26T09:31:22.804Z,40.02
2022-11-26T09:33:27.276Z,40.07
2022-11-26T09:35:31.618Z,39.97
2022-11-26T09:37:36.011Z,40.38
2022-11-26T09:39:40.385Z,40.43
2022-11-26T09:41:44.728Z,40.61
2022-11-26T09:43:54.380Z,40.91
2022-11-26T09:45:58.942Z,41.27
2022-11-26T09:48:03.336Z,41.67
2022-11-26T09:50:07.706Z,42.06
2022-11-26T09:52:12.060Z,42.7
2022-11-26T09:54:16.448Z,43.72
2022-11-26T09:56:20.838Z,45.49
2022-11-26T09:58:29.338Z,46.66
2022-11-26T10:00:33.735Z,47.35
2022-11-26T10:02:38.313Z,48.07
2022-11-26T10:04:43.310Z,47.93
2022-11-26T10:06:47.694Z,48.08
2022-11-26T10:08:52.080Z,48.21
2022-11-26T10:11:03.707Z,48.09
2022-11-26T10:13:23.798Z,47.77
2022-11-26T10:15:28.191Z,47.74
2022-11-26T10:17:32.599Z,47.73
2022-11-26T10:19:36.970Z,47.14
2022-11-26T10:22:01.014Z,46.96
2022-11-26T10:24:05.374Z,46.52
2022-11-26T10:26:09.766Z,46.58
2022-11-26T10:28:14.117Z,45.97
2022-11-26T10:30:18.506Z,46.15
2022-11-26T10:32:23.006Z,45.85
2022-11-26T10:34:39.287Z,46.4
2022-11-26T10:36:44.119Z,46.34
2022-11-26T10:38:48.522Z,46.72
2022-11-26T10:40:52.837Z,46.31
2022-11-26T10:42:57.285Z,46.76
2022-11-26T10:45:01.627Z,46.33
2022-11-26T10:47:06.014Z,46.16
2022-11-26T10:49:10.423Z,45.87
2022-11-26T10:51:14.814Z,45.98
2022-11-26T10:53:19.163Z,45.84
2022-11-26T10:55:23.603Z,45.64
2022-11-26T10:57:28.072Z,44.62
2022-11-26T10:59:32.433Z,44.79
2022-11-26T11:01:36.788Z,44.5
2022-11-26T11:04:10.057Z,44.46
2022-11-26T11:06:14.408Z,44.36
2022-11-26T11:08:18.782Z,44.31
2022-11-26T11:10:23.188Z,44.21
2022-11-26T11:12:27.599Z,44.44
2022-11-26T11:14:32.019Z,44.47
2022-11-26T11:16:36.573Z,44.76
2022-11-26T11:18:41.025Z,44.77
2022-11-26T11:20:45.375Z,44.51
2022-11-26T11:22:51.106Z,44.29
2022-11-26T11:24:57.148Z,44.35
2022-11-26T11:27:01.564Z,44.11
2022-11-26T11:29:05.915Z,44.25
2022-11-26T11:31:10.454Z,43.56
2022-11-26T11:33:14.851Z,43.71
2022-11-26T11:35:19.249Z,43.89
2022-11-26T11:37:23.625Z,43.77
2022-11-26T11:39:28.143Z,43.34
2022-11-26T11:41:32.566Z,43.14
2022-11-26T11:43:36.916Z,43.3
2022-11-26T11:45:41.505Z,43.01
2022-11-26T11:47:45.891Z,43.04
2022-11-26T11:49:50.293Z,42.69
2022-11-26T11:51:54.719Z,42.57
2022-11-26T11:53:59.126Z,42.44
2022-11-26T11:56:04.904Z,42.36
2022-11-26T11:58:09.245Z,42.41
2022-11-26T12:00:13.764Z,42.29
2022-11-26T12:02:18.507Z,42.19
2022-11-26T12:04:23.008Z,42.17
2022-11-26T12:06:27.387Z,42.1
2022-11-26T12:08:31.803Z,42.02
2022-11-26T12:10:37.790Z,41.93
2022-11-26T12:12:42.164Z,41.93
2022-11-26T12:14:47.429Z,41.88
2022-11-26T12:16:52.048Z,41.81
2022-11-26T12:18:56.363Z,41.79
2022-11-26T12:21:00.693Z,41.72
2022-11-26T12:23:05.863Z,41.59
2022-11-26T12:25:11.514Z,41.54
2022-11-26T12:27:15.884Z,41.5
2022-11-26T12:29:20.250Z,41.43
2022-11-26T12:31:24.994Z,41.49
2022-11-26T12:33:29.429Z,41.44
2022-11-26T12:35:33.871Z,41.42
2022-11-26T12:37:38.205Z,41.4
2022-11-26T12:39:42.703Z,41.43
2022-11-26T12:41:47.101Z,41.33
2022-11-26T12:43:51.462Z,41.47
2022-11-26T12:45:56.080Z,41.44
2022-11-26T12:48:00.472Z,41.46
2022-11-26T12:50:04.871Z,41.56
2022-11-26T12:52:09.227Z,41.49
2022-11-26T12:54:13.571Z,41.54
2022-11-26T12:56:17.982Z,41.58
2022-11-26T12:58:22.324Z,41.58
2022-11-26T13:00:36.741Z,41.48
2022-11-26T13:02:41.499Z,41.56
2022-11-26T13:04:45.884Z,41.91
2022-11-26T13:06:50.309Z,42.67
2022-11-26T13:08:54.674Z,42.53
2022-11-26T13:10:59.285Z,42.57
2022-11-26T13:13:03.642Z,42.77
2022-11-26T13:15:07.988Z,42.75
2022-11-26T13:17:12.384Z,43.17
2022-11-26T13:19:16.739Z,43.39
2022-11-26T13:21:21.109Z,43.46
2022-11-26T13:23:25.476Z,43.46
2022-11-26T13:25:29.836Z,43.6
2022-11-26T13:27:34.212Z,43.48
2022-11-26T13:29:38.600Z,43.53
2022-11-26T13:31:43.186Z,43.71
2022-11-26T13:33:47.605Z,43.88
2022-11-26T13:35:51.964Z,44.14
2022-11-26T13:37:56.360Z,44.34
2022-11-26T13:40:00.716Z,44.56
2022-11-26T13:42:05.121Z,44.87
2022-11-26T13:44:09.505Z,45.23
2022-11-26T13:46:22.011Z,45.36
2022-11-26T13:48:26.714Z,45.59
2022-11-26T13:50:31.093Z,45.91
2022-11-26T13:52:35.480Z,45.75
2022-11-26T13:54:41.098Z,46.23
2022-11-26T13:56:45.800Z,46.84
2022-11-26T13:58:50.176Z,47.08
2022-11-26T14:00:54.835Z,47.05
2022-11-26T14:02:59.252Z,47.92
2022-11-26T14:05:03.664Z,48.25
2022-11-26T14:07:08.125Z,48.68
2022-11-26T14:09:12.538Z,49.48
2022-11-26T14:11:23.681Z,49.35
2022-11-26T14:13:28.071Z,49.41
2022-11-26T14:15:32.466Z,49.58
2022-11-26T14:17:37.285Z,49.55
2022-11-26T14:19:41.704Z,49.47
2022-11-26T14:21:46.144Z,49.65
2022-11-26T14:23:50.528Z,49.73
2022-11-26T14:25:54.958Z,49.61
2022-11-26T14:27:59.330Z,49.53
2022-11-26T14:30:03.658Z,49.08
2022-11-26T14:32:08.212Z,49.07
2022-11-26T14:34:12.656Z,48.95
2022-11-26T14:36:17.044Z,48.86
2022-11-26T14:38:21.412Z,48.81
2022-11-26T14:40:25.760Z,48.66
2022-11-26T14:42:30.208Z,48.36
2022-11-26T14:44:34.571Z,48.35
2022-11-26T14:46:39.063Z,48.13
2022-11-26T14:48:43.438Z,47.85
2022-11-26T14:50:48.937Z,47.84
2022-11-26T14:52:53.446Z,47.79
2022-11-26T14:54:58.002Z,47.6
2022-11-26T14:57:02.382Z,47.1
2022-11-26T14:59:06.790Z,47.1
2022-11-26T15:01:11.147Z,47.09
2022-11-26T15:03:15.741Z,47.02
2022-11-26T15:05:20.192Z,46.76
2022-11-26T15:07:24.788Z,46.8
2022-11-26T15:09:29.233Z,46.66
2022-11-26T15:11:33.587Z,46.74
2022-11-26T15:13:38.012Z,46.33
2022-11-26T15:15:42.597Z,46.18
2022-11-26T15:17:46.972Z,46.27
2022-11-26T15:19:51.370Z,46.18
2022-11-26T15:21:55.726Z,46.01
2022-11-26T15:24:00.095Z,45.96
2022-11-26T15:26:04.909Z,45.9
2022-11-26T15:28:09.291Z,45.85
2022-11-26T15:30:13.710Z,45.74
2022-11-26T15:32:18.212Z,45.76
2022-11-26T15:34:22.662Z,45.69
2022-11-26T15:36:27.114Z,45.73
2022-11-26T15:38:31.567Z,45.59
2022-11-26T15:40:36.085Z,45.7
2022-11-26T15:42:40.467Z,45.53
2022-11-26T15:44:46.234Z,45.54
2022-11-26T15:46:50.780Z,45.54
2022-11-26T15:48:55.747Z,45.66
2022-11-26T15:51:00.684Z,45.75
2022-11-26T15:53:05.216Z,46.1
2022-11-26T15:55:18.585Z,47.15
2022-11-26T15:57:23.139Z,47.62
2022-11-26T15:59:27.618Z,47.97
2022-11-26T16:01:32.292Z,48.56
2022-11-26T16:03:36.692Z,48.26
2022-11-26T16:05:41.096Z,48.47
2022-11-26T16:07:45.764Z,48.24
2022-11-26T16:09:50.237Z,48.1
2022-11-26T16:11:54.688Z,48.41
2022-11-26T16:13:59.053Z,48.38
2022-11-26T16:16:03.446Z,48.34
2022-11-26T16:18:07.838Z,48.29
2022-11-26T16:20:12.173Z,48.15
2022-11-26T16:22:16.531Z,48.4
2022-11-26T16:24:20.902Z,48.84
2022-11-26T16:26:25.584Z,48.73
2022-11-26T16:28:30.054Z,48.57
2022-11-26T16:30:34.694Z,48.49
2022-11-26T16:32:39.122Z,48.51
2022-11-26T16:34:43.842Z,48.62
2022-11-26T16:36:48.233Z,48.76
2022-11-26T16:38:52.604Z,48.98
2022-11-26T16:40:57.086Z,49.07
2022-11-26T16:43:01.449Z,49.08
2022-11-26T16:58:22.798Z,48.41
2022-11-26T17:00:27.285Z,48.25
2022-11-26T17:02:32.303Z,48.15
2022-11-26T17:04:36.716Z,48.36
2022-11-26T17:06:41.083Z,47.88
2022-11-26T17:08:51.449Z,47.71
2022-11-26T17:10:55.874Z,48.12
2022-11-26T17:13:00.272Z,47.71
2022-11-26T17:15:04.712Z,47.93
2022-11-26T17:17:09.461Z,47.66
2022-11-26T17:19:13.890Z,47.6
2022-11-26T17:21:18.276Z,47.56
2022-11-26T17:23:22.624Z,47.35
2022-11-26T17:25:27.007Z,47.52
2022-11-26T17:27:31.382Z,47.73
2022-11-26T17:29:44.320Z,47.73
2022-11-26T17:31:49.196Z,47.41
2022-11-26T17:33:53.590Z,47.35
2022-11-26T17:35:57.971Z,47.35
2022-11-26T17:38:02.396Z,47.25
2022-11-26T17:40:06.809Z,44.74
2022-11-26T17:42:11.236Z,43.2
2022-11-26T17:44:15.645Z,42.31
2022-11-26T17:46:20.586Z,41.63
2022-11-26T17:48:28.594Z,40.87
2022-11-26T17:50:32.942Z,40.3
2022-11-26T17:52:37.347Z,39.97
2022-11-26T17:54:41.770Z,39.5
2022-11-26T17:56:46.231Z,39.48
2022-11-26T17:58:50.625Z,39.2
2022-11-26T18:00:54.997Z,39.15
2022-11-26T18:02:59.747Z,39.33
2022-11-26T18:05:04.113Z,38.76
2022-11-26T18:07:08.504Z,38.36
2022-11-26T18:09:12.939Z,38.43
2022-11-26T18:11:17.304Z,38.29
2022-11-26T18:13:21.730Z,38.23
2022-11-26T18:15:26.061Z,38.17
2022-11-26T18:17:30.416Z,38.44
2022-11-26T18:19:37.243Z,38.43
2022-11-26T18:21:43.782Z,38.63
2022-11-26T18:23:48.208Z,38.2
2022-11-26T18:25:52.686Z,38.11
2022-11-26T18:27:57.102Z,38.15
2022-11-26T18:30:01.769Z,37.8
2022-11-26T18:32:06.258Z,38.14
2022-11-26T18:34:10.656Z,37.72
2022-11-26T18:36:15.037Z,38.09
2022-11-26T18:38:19.419Z,37.57
2022-11-26T18:40:23.860Z,37.55
2022-11-26T18:42:43.960Z,37.57
2022-11-26T18:44:48.436Z,37.36
2022-11-26T18:46:52.782Z,37.53
2022-11-26T18:48:57.141Z,37.8
2022-11-26T18:51:01.543Z,37.72
2022-11-26T18:53:05.873Z,38.18
2022-11-26T18:55:10.385Z,38.04
2022-11-26T18:57:14.776Z,37.92
2022-11-26T18:59:19.195Z,37.67
2022-11-26T19:01:23.891Z,38.19
2022-11-26T19:03:28.297Z,38.61
2022-11-26T19:05:32.682Z,38.42
2022-11-26T19:07:37.388Z,39.95
2022-11-26T19:09:43.473Z,40.06
2022-11-26T19:11:47.921Z,39.77
2022-11-26T19:13:52.366Z,39.95
2022-11-26T19:15:56.729Z,39.91
2022-11-26T19:18:01.114Z,40.15
2022-11-26T19:20:05.496Z,40.18
2022-11-26T19:22:09.876Z,40.47
2022-11-26T19:24:14.337Z,40.5
2022-11-26T19:26:18.738Z,40.66
2022-11-26T19:28:23.089Z,40.6
2022-11-26T19:30:27.719Z,40.69
2022-11-26T19:32:32.123Z,40.83
2022-11-26T19:34:36.464Z,40.78
2022-11-26T19:36:40.987Z,40.83
2022-11-26T19:38:45.414Z,40.8
2022-11-26T19:40:49.762Z,40.86
2022-11-26T19:42:54.173Z,40.77
2022-11-26T19:44:58.557Z,40.77
2022-11-26T19:47:02.924Z,40.83
2022-11-26T19:49:07.272Z,40.75
2022-11-26T19:51:11.624Z,40.69
2022-11-26T19:53:16.034Z,40.71
2022-11-26T19:55:20.470Z,40.68
2022-11-26T19:57:24.812Z,40.85
2022-11-26T19:59:29.180Z,40.91
2022-11-26T20:01:34.198Z,40.81
2022-11-26T20:03:39.758Z,40.96
2022-11-26T20:05:44.153Z,41.18
2022-11-26T20:07:48.767Z,41.09
2022-11-26T20:09:53.241Z,41.02
2022-11-26T20:11:57.623Z,41.11
2022-11-26T20:14:01.974Z,40.92
2022-11-26T20:16:06.331Z,40.79
2022-11-26T20:18:10.722Z,40.89
2022-11-26T20:20:15.105Z,40.88
2022-11-26T20:22:20.224Z,40.97
2022-11-26T20:24:24.599Z,41.1
2022-11-26T20:26:28.984Z,41.32
2022-11-26T20:28:33.346Z,41.49
2022-11-26T20:30:37.914Z,41.45
2022-11-26T20:32:42.389Z,41.45
2022-11-26T20:34:46.789Z,41.32
2022-11-26T20:36:51.151Z,41.44
2022-11-26T20:38:55.542Z,41.54
2022-11-26T20:40:59.925Z,41.66
2022-11-26T20:43:04.315Z,41.65
2022-11-26T20:45:08.712Z,42.04
2022-11-26T20:47:13.111Z,42.27
2022-11-26T20:49:17.483Z,42.27
2022-11-26T20:51:22.232Z,42.33
2022-11-26T20:53:26.780Z,42.16
2022-11-26T20:55:31.135Z,42.3
2022-11-26T20:57:35.468Z,42.18
2022-11-26T20:59:41.076Z,42.17
2022-11-26T21:01:45.931Z,42.21
2022-11-26T21:03:50.441Z,42.08
2022-11-26T21:05:54.803Z,42.39
2022-11-26T21:07:59.384Z,42.57
2022-11-26T21:10:03.950Z,42.48
2022-11-26T21:12:08.389Z,40.52
2022-11-26T21:14:17.082Z,39.6
2022-11-26T21:16:21.617Z,38.96
2022-11-26T21:18:26.049Z,38.68
2022-11-26T21:20:37.469Z,38.43
2022-11-26T21:22:41.819Z,37.85
2022-11-26T21:24:46.256Z,37.76
2022-11-26T21:26:50.621Z,37.72
2022-11-26T21:28:55.014Z,37.62
2022-11-26T21:30:59.680Z,37.47
2022-11-26T21:33:10.862Z,37.23
2022-11-26T21:35:15.301Z,37.21
2022-11-26T21:37:19.637Z,37.11
2022-11-26T21:39:23.989Z,37.16
2022-11-26T21:41:28.485Z,37.12
2022-11-26T21:43:32.828Z,36.96
2022-11-26T21:45:37.297Z,36.81
2022-11-26T21:47:41.697Z,36.82
2022-11-26T21:49:46.057Z,36.64
2022-11-26T21:51:50.444Z,36.92
2022-11-26T21:53:54.852Z,37.49
2022-11-26T21:55:59.221Z,37.58
2022-11-26T21:58:03.885Z,37.31
2022-11-26T22:00:08.434Z,37.51
2022-11-26T22:02:13.028Z,37.57
2022-11-26T22:04:17.640Z,37.52
2022-11-26T22:06:22.595Z,37.42
2022-11-26T22:08:27.012Z,37.16
2022-11-26T22:10:37.309Z,37.47
2022-11-26T22:12:41.665Z,37
2022-11-26T22:14:46.001Z,36.66
2022-11-26T22:16:50.384Z,36.49
2022-11-26T22:18:54.757Z,36.47
2022-11-26T22:20:59.242Z,36.47
2022-11-26T22:23:03.654Z,36.46
2022-11-26T22:25:08.071Z,36.45
2022-11-26T22:27:12.449Z,36.39
2022-11-26T22:29:16.809Z,36.36
2022-11-26T22:31:21.389Z,36.41
2022-11-26T22:33:25.818Z,36.54
2022-11-26T22:35:30.166Z,36.37
2022-11-26T22:37:34.547Z,36.31
2022-11-26T22:39:40.069Z,36.27
2022-11-26T22:41:44.681Z,36.21
2022-11-26T22:43:49.035Z,36.14
2022-11-26T22:45:53.620Z,36.09
2022-11-26T22:47:58.063Z,36.1
2022-11-26T22:50:02.417Z,36.42
2022-11-26T22:52:06.805Z,36.22
2022-11-26T22:54:11.170Z,36.25
2022-11-26T22:56:15.515Z,36.45
2022-11-26T22:58:19.856Z,36.57
2022-11-26T23:00:24.188Z,36.44
2022-11-26T23:02:28.814Z,36.28
2022-11-26T23:04:33.237Z,36.33
2022-11-26T23:06:37.620Z,36.28
2022-11-26T23:08:41.963Z,36.73
2022-11-26T23:10:46.331Z,37
2022-11-26T23:12:50.689Z,36.42
2022-11-26T23:14:55.011Z,36.6
2022-11-26T23:16:59.374Z,36.46
2022-11-26T23:19:03.725Z,36.32
2022-11-26T23:21:08.094Z,36.26
2022-11-26T23:23:12.451Z,36.39
2022-11-26T23:25:16.833Z,36.34
2022-11-26T23:27:21.226Z,36.09
2022-11-26T23:29:25.586Z,36.09
2022-11-26T23:31:30.368Z,36.18
2022-11-26T23:33:34.818Z,36.18
2022-11-26T23:35:39.188Z,36.05
2022-11-26T23:37:43.625Z,36.2
2022-11-26T23:39:47.978Z,36.09
2022-11-26T23:41:52.360Z,36.09
2022-11-26T23:43:56.711Z,36.17
2022-11-26T23:46:01.272Z,36.11
2022-11-26T23:48:05.669Z,36.12
2022-11-26T23:50:10.048Z,36.07
2022-11-26T23:52:14.415Z,36.05
2022-11-26T23:54:18.804Z,36.08
2022-11-26T23:56:23.144Z,36.07
2022-11-26T23:58:27.506Z,36.03
